الصفحة الرئيسية
METAR-TAF:

METAR-TAF

مطار :

واغادوغو, بوركينا فاسو

مطار واغادوغو

دائرة عرض: 12-21N, خط طول: 001-31W, ارتفاع: 316 متر

مراقبة الطقس الحالي

تاريخ ووقت الإصدار 43 دقيقة قبل الساعة 03:00UTC
رياح هادئة
درجة الحرارة 19°درجة مئوية
الرطوبة 24%
ضغط 1013 hPa
الرؤية 10 كم أو أكثر
الغيوم لا تقل 1500 م ولا وجود لمزنة ركامية السحاب الأسود

METAR: DFFD 190300Z 00000KT CAVOK 19/M02 Q1013 NOSIG

زمن: 03:43 (03:43 UTC)

توقعات

تاريخ ووقت الإصدار 4ساعات و 43 دقيقة قبل الساعة 23:00UTC
التوقعات صالحة من19 الساعة 00 UTC إلى 20 الساعة 06 UTC
ريح 8 عقدة من الشرق
الرؤية: 8000 متر
مؤقت
من 19 الساعة 06 UTC إلى 19 الساعة 10 UTC
الرؤية: 3500 متر
غبار
مؤقت
من 19 الساعة 17 UTC إلى 19 الساعة 20 UTC
الرؤية: 4000 متر
غبار

TAF: DFFD 182300Z 1900/2006 08008KT 8000 NSC TEMPO 1906/1910 3500 DU TEMPO 1917/1920 4000 DU

أرصاد الطقس والتوقعات من أكثر من 4000 مطار (تقارير الطقس للمطار METAR والتنبؤ بالطقس بالمطارTAF).

المحطات المتاحة هي النقط الصفراء والحمراء على الخريطة.

حرك المؤشر فوق النقطة لمعرفة اسم المحطة.

ثم انقر لمعرفة أرصاد وتوقعات الطقس.

لتغيير الخارطة: اضغط على الأزرار الخضراء مع رمز الصليب الأسود للتكبير. على الزر الأخضر مع شرطة للتصغير، أو على الأسهم الخضراء للخرائط المجاورة.


METAR-TAF: